createdAt,value
2017-06-11T00:00:13.829Z,0
2017-06-11T00:00:54.370Z,0
2017-06-11T00:01:34.902Z,0
2017-06-11T00:02:15.490Z,0
2017-06-11T00:02:56.026Z,0
2017-06-11T00:03:36.559Z,0
2017-06-11T00:04:17.106Z,0
2017-06-11T00:04:57.639Z,0
2017-06-11T00:05:38.189Z,0
2017-06-11T00:06:18.730Z,0
2017-06-11T00:06:59.268Z,0
2017-06-11T00:07:39.808Z,0
2017-06-11T00:08:20.350Z,0
2017-06-11T00:09:00.896Z,0
2017-06-11T00:09:41.436Z,0
2017-06-11T00:10:21.975Z,0
2017-06-11T00:11:02.514Z,0
2017-06-11T00:11:43.063Z,0
2017-06-11T00:12:23.608Z,0
2017-06-11T00:13:04.143Z,0
2017-06-11T00:13:44.678Z,0
2017-06-11T00:14:25.224Z,0
2017-06-11T00:15:05.765Z,0
2017-06-11T00:15:46.301Z,0
2017-06-11T00:16:26.846Z,0
2017-06-11T00:17:07.387Z,0
2017-06-11T00:17:47.922Z,0
2017-06-11T00:18:28.537Z,0
2017-06-11T00:19:09.080Z,0
2017-06-11T00:19:49.608Z,0
2017-06-11T00:20:30.159Z,0
2017-06-11T00:21:10.708Z,0
2017-06-11T00:21:51.260Z,0
2017-06-11T00:22:31.784Z,0
2017-06-11T00:23:12.328Z,0
2017-06-11T00:23:52.877Z,0
2017-06-11T00:24:33.408Z,0
2017-06-11T00:25:13.955Z,0
2017-06-11T00:25:54.492Z,0
2017-06-11T00:26:35.030Z,0
2017-06-11T00:27:15.576Z,0
2017-06-11T00:27:56.122Z,0
2017-06-11T00:28:36.667Z,0
2017-06-11T00:29:17.219Z,0
2017-06-11T00:29:57.771Z,0
2017-06-11T00:30:38.327Z,0
2017-06-11T00:31:18.881Z,0
2017-06-11T00:31:59.426Z,0
2017-06-11T00:32:39.971Z,0
2017-06-11T00:33:20.512Z,0
2017-06-11T00:34:01.055Z,0
2017-06-11T00:34:41.594Z,0
2017-06-11T00:35:22.131Z,0
2017-06-11T00:36:02.670Z,0
2017-06-11T00:36:43.208Z,0
2017-06-11T00:37:23.753Z,0
2017-06-11T00:38:04.288Z,0
2017-06-11T00:38:44.831Z,0
2017-06-11T00:39:25.377Z,0
2017-06-11T00:40:05.929Z,0
2017-06-11T00:40:46.459Z,0
2017-06-11T00:41:27.007Z,0
2017-06-11T00:42:07.549Z,0
2017-06-11T00:42:48.085Z,0
2017-06-11T00:43:28.626Z,0
2017-06-11T00:44:09.234Z,0
2017-06-11T00:44:49.759Z,0
2017-06-11T00:45:30.323Z,0
2017-06-11T00:46:10.852Z,0
2017-06-11T00:46:51.394Z,0
2017-06-11T00:47:31.933Z,0
2017-06-11T00:48:12.474Z,0
2017-06-11T00:48:53.010Z,0
2017-06-11T00:49:33.548Z,0
2017-06-11T00:50:14.094Z,0
2017-06-11T00:50:54.635Z,0
2017-06-11T00:51:35.173Z,0
2017-06-11T00:52:15.715Z,0
2017-06-11T00:52:56.244Z,0
2017-06-11T00:53:36.775Z,0
2017-06-11T00:54:17.315Z,0
2017-06-11T00:54:57.858Z,0
2017-06-11T00:55:38.404Z,0
2017-06-11T00:56:18.948Z,0
2017-06-11T00:56:59.497Z,0
2017-06-11T00:57:40.039Z,0
2017-06-11T00:58:20.581Z,0
2017-06-11T00:59:01.127Z,0
2017-06-11T00:59:41.665Z,0
2017-06-11T01:00:22.201Z,0
2017-06-11T01:01:02.722Z,0
2017-06-11T01:01:43.263Z,0
2017-06-11T01:02:23.806Z,0
2017-06-11T01:03:04.346Z,0
2017-06-11T01:03:44.895Z,0
2017-06-11T01:04:25.430Z,0
2017-06-11T01:05:05.979Z,0
2017-06-11T01:05:46.535Z,0
2017-06-11T01:06:27.082Z,0
2017-06-11T01:07:07.622Z,0
2017-06-11T01:07:48.166Z,0
2017-06-11T01:08:28.702Z,0
2017-06-11T01:09:09.243Z,0
2017-06-11T01:09:49.775Z,0
2017-06-11T01:10:30.318Z,0
2017-06-11T01:11:10.854Z,0
2017-06-11T01:11:51.421Z,0
2017-06-11T01:12:31.971Z,0
2017-06-11T01:13:12.519Z,0
2017-06-11T01:13:53.065Z,0
2017-06-11T01:14:33.616Z,0
2017-06-11T01:15:14.159Z,0
2017-06-11T01:15:54.693Z,0
2017-06-11T01:16:35.235Z,0
2017-06-11T01:17:15.783Z,0
2017-06-11T01:17:56.299Z,0
2017-06-11T01:18:36.835Z,0
2017-06-11T01:19:17.376Z,0
2017-06-11T01:19:57.913Z,0
2017-06-11T01:20:38.474Z,0
2017-06-11T01:21:19.008Z,0
2017-06-11T01:21:59.549Z,0
2017-06-11T01:22:40.082Z,0
2017-06-11T01:23:20.621Z,0
2017-06-11T01:24:01.147Z,0
2017-06-11T01:24:41.696Z,0
2017-06-11T01:25:22.240Z,0
2017-06-11T01:26:02.776Z,0
2017-06-11T01:26:43.325Z,0
2017-06-11T01:27:23.881Z,0
2017-06-11T01:28:04.403Z,0
2017-06-11T01:28:44.954Z,0
2017-06-11T01:29:25.499Z,0
2017-06-11T01:30:06.045Z,0
2017-06-11T01:30:46.588Z,0
2017-06-11T01:31:27.136Z,0
2017-06-11T01:32:07.665Z,0
2017-06-11T01:32:48.205Z,0
2017-06-11T01:33:28.745Z,0
2017-06-11T01:34:09.288Z,0
2017-06-11T01:34:49.829Z,0
2017-06-11T01:35:30.372Z,0
2017-06-11T01:36:10.917Z,0
2017-06-11T01:36:51.462Z,0
2017-06-11T01:37:32.001Z,0
2017-06-11T01:38:12.535Z,0
2017-06-11T01:38:53.083Z,0
2017-06-11T01:39:33.620Z,0
2017-06-11T01:40:14.195Z,0
2017-06-11T01:40:54.731Z,0
2017-06-11T01:41:35.264Z,0
2017-06-11T01:42:15.807Z,0
2017-06-11T01:42:56.343Z,0
2017-06-11T01:43:36.885Z,0
2017-06-11T01:44:17.428Z,0
2017-06-11T01:44:57.972Z,0
2017-06-11T01:45:38.513Z,0
2017-06-11T01:46:19.050Z,0
2017-06-11T01:46:59.615Z,0
2017-06-11T01:47:40.164Z,0
2017-06-11T01:48:20.711Z,0
2017-06-11T01:49:01.254Z,0
2017-06-11T01:49:41.785Z,0
2017-06-11T01:50:22.318Z,0
2017-06-11T01:51:02.861Z,0
2017-06-11T01:51:43.405Z,0
2017-06-11T01:52:23.946Z,0
2017-06-11T01:53:04.490Z,0
2017-06-11T01:53:45.032Z,0
2017-06-11T01:54:25.586Z,0
2017-06-11T01:55:06.123Z,0
2017-06-11T01:55:46.670Z,0
2017-06-11T01:56:27.197Z,0
2017-06-11T01:57:07.729Z,0
2017-06-11T01:57:48.270Z,0
2017-06-11T01:58:28.813Z,0
2017-06-11T01:59:09.359Z,0
2017-06-11T01:59:49.904Z,0
2017-06-11T02:00:30.452Z,0
2017-06-11T02:01:10.994Z,0
2017-06-11T02:01:51.531Z,0
2017-06-11T02:02:32.081Z,0
2017-06-11T02:03:12.619Z,0
2017-06-11T02:03:53.170Z,0
2017-06-11T02:04:33.709Z,0
2017-06-11T02:05:14.247Z,0
2017-06-11T02:05:54.789Z,0
2017-06-11T02:06:35.327Z,0
2017-06-11T02:07:15.873Z,0
2017-06-11T02:07:56.398Z,0
2017-06-11T02:08:36.942Z,0
2017-06-11T02:09:17.487Z,0
2017-06-11T02:09:58.031Z,0
2017-06-11T02:10:38.567Z,0
2017-06-11T02:11:19.118Z,0
2017-06-11T02:11:59.656Z,0
2017-06-11T02:12:40.194Z,0
2017-06-11T02:13:20.736Z,0
2017-06-11T02:14:01.366Z,0
2017-06-11T02:14:41.855Z,0
2017-06-11T02:15:22.387Z,0
2017-06-11T02:16:02.917Z,0
2017-06-11T02:16:43.456Z,0
2017-06-11T02:17:23.988Z,0
2017-06-11T02:18:04.516Z,0
2017-06-11T02:18:45.045Z,0
2017-06-11T02:19:25.582Z,0
2017-06-11T02:20:06.130Z,0
2017-06-11T02:20:46.668Z,0
2017-06-11T02:21:27.208Z,0
2017-06-11T02:22:07.732Z,0
2017-06-11T02:22:48.268Z,0
2017-06-11T02:23:28.800Z,0
2017-06-11T02:24:09.343Z,0
2017-06-11T02:24:49.885Z,0
2017-06-11T02:25:30.411Z,0
2017-06-11T02:26:10.962Z,0
2017-06-11T02:26:51.501Z,0
2017-06-11T02:27:32.045Z,0
2017-06-11T02:28:12.588Z,0
2017-06-11T02:28:53.123Z,0
2017-06-11T02:29:33.661Z,0
2017-06-11T02:30:14.194Z,0
2017-06-11T02:30:54.739Z,0
2017-06-11T02:31:35.281Z,0
2017-06-11T02:32:15.821Z,0
2017-06-11T02:32:56.369Z,0
2017-06-11T02:33:36.910Z,0
2017-06-11T02:34:17.461Z,0
2017-06-11T02:34:58.011Z,0
2017-06-11T02:35:38.552Z,0
2017-06-11T02:36:19.090Z,0
2017-06-11T02:36:59.642Z,0
2017-06-11T02:37:40.180Z,0
2017-06-11T02:38:20.727Z,0
2017-06-11T02:39:01.273Z,0
2017-06-11T02:39:41.811Z,0
2017-06-11T02:40:22.344Z,0
2017-06-11T02:41:02.888Z,0
2017-06-11T02:41:43.426Z,0
2017-06-11T02:42:23.973Z,0
2017-06-11T02:43:04.517Z,4
2017-06-11T02:43:45.057Z,4
2017-06-11T02:44:25.600Z,4
2017-06-11T02:45:06.143Z,4
2017-06-11T02:45:46.680Z,0
2017-06-11T02:46:27.214Z,0
2017-06-11T02:47:07.761Z,4
2017-06-11T02:47:48.310Z,4
2017-06-11T02:48:28.845Z,4
2017-06-11T02:49:09.388Z,4
2017-06-11T02:49:49.937Z,4
2017-06-11T02:50:30.477Z,4
2017-06-11T02:51:11.025Z,4
2017-06-11T02:51:51.558Z,4
2017-06-11T02:52:32.107Z,4
2017-06-11T02:53:12.640Z,8
2017-06-11T02:53:53.189Z,4
2017-06-11T02:54:33.731Z,8
2017-06-11T02:55:14.276Z,8
2017-06-11T02:55:54.816Z,8
2017-06-11T02:56:35.357Z,12
2017-06-11T02:57:15.883Z,12
2017-06-11T02:57:56.416Z,12
2017-06-11T02:58:36.963Z,12
2017-06-11T02:59:17.503Z,16
2017-06-11T02:59:58.041Z,16
2017-06-11T03:00:38.580Z,16
2017-06-11T03:01:19.121Z,20
2017-06-11T03:01:59.654Z,20
2017-06-11T03:02:40.218Z,20
2017-06-11T03:03:20.753Z,20
2017-06-11T03:04:01.294Z,24
2017-06-11T03:04:41.831Z,28
2017-06-11T03:05:22.370Z,28
2017-06-11T03:06:02.912Z,28
2017-06-11T03:06:43.453Z,32
2017-06-11T03:07:23.991Z,36
2017-06-11T03:08:04.529Z,36
2017-06-11T03:08:45.070Z,40
2017-06-11T03:09:25.615Z,44
2017-06-11T03:10:06.157Z,44
2017-06-11T03:10:46.698Z,48
2017-06-11T03:11:27.227Z,52
2017-06-11T03:12:07.760Z,52
2017-06-11T03:12:48.298Z,56
2017-06-11T03:13:28.835Z,60
2017-06-11T03:14:09.383Z,64
2017-06-11T03:14:49.923Z,68
2017-06-11T03:15:30.464Z,68
2017-06-11T03:16:11.003Z,76
2017-06-11T03:16:51.551Z,80
2017-06-11T03:17:32.099Z,80
2017-06-11T03:18:12.634Z,88
2017-06-11T03:18:53.182Z,92
2017-06-11T03:19:33.724Z,96
2017-06-11T03:20:14.264Z,100
2017-06-11T03:20:54.808Z,104
2017-06-11T03:21:35.364Z,112
2017-06-11T03:22:15.903Z,116
2017-06-11T03:22:56.445Z,120
2017-06-11T03:23:36.987Z,128
2017-06-11T03:24:17.524Z,132
2017-06-11T03:24:58.061Z,136
2017-06-11T03:25:38.604Z,144
2017-06-11T03:26:19.149Z,148
2017-06-11T03:26:59.669Z,152
2017-06-11T03:27:40.215Z,160
2017-06-11T03:28:20.751Z,164
2017-06-11T03:29:01.298Z,176
2017-06-11T03:29:41.831Z,180
2017-06-11T03:30:22.375Z,184
2017-06-11T03:31:02.916Z,192
2017-06-11T03:31:43.457Z,196
2017-06-11T03:32:23.996Z,204
2017-06-11T03:33:04.537Z,212
2017-06-11T03:33:45.076Z,220
2017-06-11T03:34:25.613Z,228
2017-06-11T03:35:06.155Z,232
2017-06-11T03:35:46.710Z,240
2017-06-11T03:36:27.256Z,248
2017-06-11T03:37:07.787Z,252
2017-06-11T03:37:48.329Z,260
2017-06-11T03:38:28.871Z,264
2017-06-11T03:39:09.409Z,276
2017-06-11T03:39:49.946Z,280
2017-06-11T03:40:30.492Z,288
2017-06-11T03:41:11.033Z,296
2017-06-11T03:41:51.574Z,304
2017-06-11T03:42:32.113Z,308
2017-06-11T03:43:12.661Z,316
2017-06-11T03:43:53.207Z,324
2017-06-11T03:44:33.751Z,328
2017-06-11T03:45:14.292Z,336
2017-06-11T03:45:54.830Z,344
2017-06-11T03:46:35.360Z,348
2017-06-11T03:47:15.911Z,356
2017-06-11T03:47:56.446Z,360
2017-06-11T03:48:36.981Z,368
2017-06-11T03:49:17.526Z,376
2017-06-11T03:49:58.072Z,384
2017-06-11T03:50:38.612Z,388
2017-06-11T03:51:19.149Z,400
2017-06-11T03:51:59.685Z,408
2017-06-11T03:52:40.230Z,412
2017-06-11T03:53:20.741Z,416
2017-06-11T03:54:01.280Z,424
2017-06-11T03:54:41.828Z,428
2017-06-11T03:55:22.378Z,432
2017-06-11T03:56:02.926Z,440
2017-06-11T03:56:43.469Z,448
2017-06-11T03:57:24.018Z,456
2017-06-11T03:58:04.559Z,460
2017-06-11T03:58:45.086Z,468
2017-06-11T03:59:25.625Z,472
2017-06-11T04:00:06.164Z,480
2017-06-11T04:00:46.703Z,484
2017-06-11T04:01:27.245Z,492
2017-06-11T04:02:07.785Z,500
2017-06-11T04:02:48.324Z,504
2017-06-11T04:03:28.873Z,512
2017-06-11T04:04:09.420Z,520
2017-06-11T04:04:49.961Z,524
2017-06-11T04:05:30.511Z,532
2017-06-11T04:06:11.053Z,536
2017-06-11T04:06:51.614Z,540
2017-06-11T04:07:32.152Z,544
2017-06-11T04:08:12.699Z,552
2017-06-11T04:08:53.238Z,556
2017-06-11T04:09:33.775Z,564
2017-06-11T04:10:14.311Z,572
2017-06-11T04:10:54.853Z,576
2017-06-11T04:11:35.397Z,580
2017-06-11T04:12:15.941Z,584
2017-06-11T04:12:56.481Z,592
2017-06-11T04:13:37.024Z,600
2017-06-11T04:14:17.572Z,604
2017-06-11T04:14:58.119Z,608
2017-06-11T04:15:38.660Z,616
2017-06-11T04:16:19.204Z,620
2017-06-11T04:16:59.747Z,624
2017-06-11T04:17:40.282Z,632
2017-06-11T04:18:20.827Z,636
2017-06-11T04:19:01.372Z,640
2017-06-11T04:19:41.911Z,648
2017-06-11T04:20:22.451Z,652
2017-06-11T04:21:02.992Z,660
2017-06-11T04:21:43.532Z,664
2017-06-11T04:22:24.077Z,668
2017-06-11T04:23:04.618Z,676
2017-06-11T04:23:45.160Z,676
2017-06-11T04:24:25.689Z,680
2017-06-11T04:25:06.230Z,680
2017-06-11T04:25:46.767Z,680
2017-06-11T04:26:27.309Z,680
2017-06-11T04:27:07.901Z,684
2017-06-11T04:27:48.432Z,692
2017-06-11T04:28:28.972Z,704
2017-06-11T04:29:09.509Z,728
2017-06-11T04:29:50.056Z,740
2017-06-11T04:30:30.595Z,748
2017-06-11T04:31:11.140Z,760
2017-06-11T04:31:51.685Z,772
2017-06-11T04:32:32.241Z,788
2017-06-11T04:33:12.764Z,800
2017-06-11T04:33:53.308Z,808
2017-06-11T04:34:33.836Z,808
2017-06-11T04:35:14.379Z,804
2017-06-11T04:35:54.924Z,812
2017-06-11T04:36:35.468Z,824
2017-06-11T04:37:16.027Z,824
2017-06-11T04:37:56.568Z,820
2017-06-11T04:38:37.112Z,816
2017-06-11T04:39:17.651Z,820
2017-06-11T04:39:58.201Z,852
2017-06-11T04:40:38.741Z,896
2017-06-11T04:41:19.303Z,944
2017-06-11T04:41:59.844Z,972
2017-06-11T04:42:40.390Z,1004
2017-06-11T04:43:20.916Z,1044
2017-06-11T04:44:01.471Z,1080
2017-06-11T04:44:42.000Z,1108
2017-06-11T04:45:22.541Z,1132
2017-06-11T04:46:03.076Z,1152
2017-06-11T04:46:43.612Z,1148
2017-06-11T04:47:24.158Z,1152
2017-06-11T04:48:04.700Z,1156
2017-06-11T04:48:45.247Z,1192
2017-06-11T04:49:25.791Z,1248
2017-06-11T04:50:06.332Z,1308
2017-06-11T04:50:46.858Z,1352
2017-06-11T04:51:27.390Z,1412
2017-06-11T04:52:07.937Z,1452
2017-06-11T04:52:48.485Z,1528
2017-06-11T04:53:29.027Z,1572
2017-06-11T04:54:09.558Z,1636
2017-06-11T04:54:50.103Z,1696
2017-06-11T04:55:30.686Z,1832
2017-06-11T04:56:11.242Z,1936
2017-06-11T04:56:51.835Z,2032
2017-06-11T04:57:32.357Z,2144
2017-06-11T04:58:12.900Z,2196
2017-06-11T04:58:53.446Z,2304
2017-06-11T04:59:34.012Z,2328
2017-06-11T05:00:14.570Z,2360
2017-06-11T05:00:55.130Z,2372
2017-06-11T05:01:35.675Z,2340
2017-06-11T05:02:16.221Z,2308
2017-06-11T05:02:56.763Z,2304
2017-06-11T05:03:37.305Z,2252
2017-06-11T05:04:17.850Z,2192
2017-06-11T05:04:58.395Z,2136
2017-06-11T05:05:38.944Z,2112
2017-06-11T05:06:19.493Z,2096
2017-06-11T05:07:00.044Z,2076
2017-06-11T05:07:40.588Z,2084
2017-06-11T05:08:21.130Z,2096
2017-06-11T05:09:01.671Z,2072
2017-06-11T05:09:42.221Z,2080
2017-06-11T05:10:22.770Z,2060
2017-06-11T05:11:03.312Z,2056
2017-06-11T05:11:44.353Z,2040
2017-06-11T05:12:24.895Z,2012
2017-06-11T05:13:05.436Z,1996
2017-06-11T05:13:45.976Z,1960
2017-06-11T05:14:26.517Z,1972
2017-06-11T05:15:07.063Z,1992
2017-06-11T05:15:47.609Z,2012
2017-06-11T05:16:28.151Z,2020
2017-06-11T05:17:08.690Z,2068
2017-06-11T05:17:49.221Z,2104
2017-06-11T05:18:29.753Z,2164
2017-06-11T05:19:10.323Z,2200
2017-06-11T05:19:50.838Z,2260
2017-06-11T05:20:31.387Z,2296
2017-06-11T05:21:11.936Z,2344
2017-06-11T05:21:52.479Z,2380
2017-06-11T05:22:33.013Z,2444
2017-06-11T05:23:13.569Z,2492
2017-06-11T05:23:54.126Z,2560
2017-06-11T05:24:34.657Z,2544
2017-06-11T05:25:15.198Z,2560
2017-06-11T05:25:55.747Z,2628
2017-06-11T05:26:36.281Z,2616
2017-06-11T05:27:16.822Z,2612
2017-06-11T05:27:57.365Z,2660
2017-06-11T05:28:37.900Z,2788
2017-06-11T05:29:18.442Z,2856
2017-06-11T05:29:58.991Z,2924
2017-06-11T05:30:39.541Z,2940
2017-06-11T05:31:20.083Z,3012
2017-06-11T05:32:00.630Z,2988
2017-06-11T05:32:41.177Z,2972
2017-06-11T05:33:21.726Z,2920
2017-06-11T05:34:02.273Z,2892
2017-06-11T05:34:42.821Z,2880
2017-06-11T05:35:23.362Z,2884
2017-06-11T05:36:03.911Z,2888
2017-06-11T05:36:44.448Z,2868
2017-06-11T05:37:24.997Z,2820
2017-06-11T05:38:05.651Z,2744
2017-06-11T05:38:46.199Z,2736
2017-06-11T05:39:26.723Z,2724
2017-06-11T05:40:07.329Z,2756
2017-06-11T05:40:47.851Z,2756
2017-06-11T05:41:28.378Z,2780
2017-06-11T05:42:08.919Z,2856
2017-06-11T05:42:49.470Z,2960
2017-06-11T05:43:30.015Z,2992
2017-06-11T05:44:10.560Z,3000
2017-06-11T05:44:51.111Z,2988
2017-06-11T05:45:31.657Z,2932
2017-06-11T05:46:12.201Z,3036
2017-06-11T05:46:52.748Z,3240
2017-06-11T05:47:33.280Z,3356
2017-06-11T05:48:13.817Z,3468
2017-06-11T05:48:54.360Z,3512
2017-06-11T05:49:35.114Z,3492
2017-06-11T05:50:16.768Z,3396
2017-06-11T05:50:58.401Z,3412
2017-06-11T05:51:39.170Z,3452
2017-06-11T05:52:19.712Z,3400
2017-06-11T05:53:00.257Z,3384
2017-06-11T05:53:40.801Z,3244
2017-06-11T05:54:21.400Z,3164
2017-06-11T05:55:01.941Z,3100
2017-06-11T05:55:42.490Z,3152
2017-06-11T05:56:23.051Z,3248
2017-06-11T05:57:03.599Z,3360
2017-06-11T05:57:44.143Z,3440
2017-06-11T05:58:24.686Z,3508
2017-06-11T05:59:05.208Z,3648
2017-06-11T05:59:45.757Z,3824
2017-06-11T06:00:26.297Z,3908
2017-06-11T06:01:06.853Z,3996
2017-06-11T06:01:47.394Z,4092
2017-06-11T06:02:27.950Z,4204
2017-06-11T06:03:08.477Z,4360
2017-06-11T06:03:49.345Z,4460
2017-06-11T06:04:29.872Z,4516
2017-06-11T06:05:10.408Z,4500
2017-06-11T06:05:50.959Z,4532
2017-06-11T06:06:31.504Z,4428
2017-06-11T06:07:12.050Z,4504
2017-06-11T06:07:52.595Z,4640
2017-06-11T06:08:33.145Z,4772
2017-06-11T06:09:13.699Z,4808
2017-06-11T06:09:54.246Z,4760
2017-06-11T06:10:34.782Z,4656
2017-06-11T06:11:15.328Z,4628
2017-06-11T06:11:55.872Z,4592
2017-06-11T06:12:36.412Z,4564
2017-06-11T06:13:16.952Z,4600
2017-06-11T06:13:57.496Z,4716
2017-06-11T06:14:38.029Z,5008
2017-06-11T06:15:18.573Z,5268
2017-06-11T06:15:59.119Z,5436
2017-06-11T06:16:39.662Z,5524
2017-06-11T06:17:20.212Z,5464
2017-06-11T06:18:00.843Z,5324
2017-06-11T06:18:41.396Z,5272
2017-06-11T06:19:21.928Z,5268
2017-06-11T06:20:02.467Z,5232
2017-06-11T06:20:43.005Z,5232
2017-06-11T06:21:23.538Z,5260
2017-06-11T06:22:04.082Z,5188
2017-06-11T06:22:44.620Z,5112
2017-06-11T06:23:25.149Z,5128
2017-06-11T06:24:05.688Z,5228
2017-06-11T06:24:46.233Z,5320
2017-06-11T06:25:26.780Z,5356
2017-06-11T06:26:07.317Z,5456
2017-06-11T06:26:47.872Z,5448
2017-06-11T06:27:28.420Z,5524
2017-06-11T06:28:08.951Z,5564
2017-06-11T06:28:49.489Z,5572
2017-06-11T06:29:30.034Z,5480
2017-06-11T06:30:10.578Z,5408
2017-06-11T06:30:51.197Z,5448
2017-06-11T06:31:31.767Z,5508
2017-06-11T06:32:12.325Z,5576
2017-06-11T06:32:52.861Z,5752
2017-06-11T06:33:33.400Z,5948
2017-06-11T06:34:13.946Z,6160
2017-06-11T06:34:54.482Z,6348
2017-06-11T06:35:35.031Z,6500
2017-06-11T06:36:15.576Z,6572
2017-06-11T06:36:56.120Z,6640
2017-06-11T06:37:36.661Z,6632
2017-06-11T06:38:17.210Z,6540
2017-06-11T06:38:57.806Z,6424
2017-06-11T06:39:38.346Z,6444
2017-06-11T06:40:18.885Z,6360
2017-06-11T06:40:59.429Z,6436
2017-06-11T06:41:39.978Z,6544
2017-06-11T06:42:20.519Z,6492
2017-06-11T06:43:01.069Z,6500
2017-06-11T06:43:41.609Z,6560
2017-06-11T06:44:22.157Z,6496
2017-06-11T06:45:02.701Z,6528
2017-06-11T06:45:43.250Z,6652
2017-06-11T06:46:23.793Z,6800
2017-06-11T06:47:04.338Z,6856
2017-06-11T06:47:44.884Z,6720
2017-06-11T06:48:25.426Z,6780
2017-06-11T06:49:05.968Z,6544
2017-06-11T06:49:46.513Z,6408
2017-06-11T06:50:27.047Z,6300
2017-06-11T06:51:07.596Z,6048
2017-06-11T06:51:48.136Z,5932
2017-06-11T06:52:28.681Z,5684
2017-06-11T06:53:09.222Z,5652
2017-06-11T06:53:49.772Z,5896
2017-06-11T06:54:30.329Z,6032
2017-06-11T06:55:10.875Z,5904
2017-06-11T06:55:51.421Z,6076
2017-06-11T06:56:31.963Z,5628
2017-06-11T06:57:12.514Z,5248
2017-06-11T06:57:53.064Z,5452
2017-06-11T06:58:33.640Z,5236
2017-06-11T06:59:14.165Z,5144
2017-06-11T06:59:54.714Z,5200
2017-06-11T07:00:35.257Z,5716
2017-06-11T07:01:15.806Z,5504
2017-06-11T07:01:56.359Z,5432
2017-06-11T07:02:36.911Z,5152
2017-06-11T07:03:17.450Z,4988
2017-06-11T07:03:57.957Z,4508
2017-06-11T07:04:38.486Z,4580
2017-06-11T07:05:19.022Z,4704
2017-06-11T07:05:59.570Z,4580
2017-06-11T07:06:40.128Z,4584
2017-06-11T07:07:20.685Z,4460
2017-06-11T07:08:01.223Z,4192
2017-06-11T07:08:41.755Z,4216
2017-06-11T07:09:22.277Z,4024
2017-06-11T07:10:02.781Z,4132
2017-06-11T07:10:43.322Z,4188
2017-06-11T07:11:23.869Z,4228
2017-06-11T07:12:04.450Z,4292
2017-06-11T07:12:44.993Z,4340
2017-06-11T07:13:25.527Z,4324
2017-06-11T07:14:06.080Z,4464
2017-06-11T07:14:46.598Z,4484
2017-06-11T07:15:27.118Z,4540
2017-06-11T07:16:07.642Z,4832
2017-06-11T07:16:48.174Z,4924
2017-06-11T07:17:28.715Z,5040
2017-06-11T07:18:09.255Z,5152
2017-06-11T07:18:49.832Z,5072
2017-06-11T07:19:30.387Z,5260
2017-06-11T07:20:10.924Z,5216
2017-06-11T07:20:51.471Z,5440
2017-06-11T07:21:31.997Z,5664
2017-06-11T07:22:12.522Z,5736
2017-06-11T07:22:53.051Z,5928
2017-06-11T07:23:33.599Z,6004
2017-06-11T07:24:14.127Z,6240
2017-06-11T07:24:54.657Z,6576
2017-06-11T07:25:35.219Z,6780
2017-06-11T07:26:15.755Z,6772
2017-06-11T07:26:56.286Z,6800
2017-06-11T07:27:36.802Z,6976
2017-06-11T07:28:17.350Z,7160
2017-06-11T07:28:57.888Z,7108
2017-06-11T07:29:38.444Z,6996
2017-06-11T07:30:18.995Z,7276
2017-06-11T07:30:59.525Z,7380
2017-06-11T07:31:40.065Z,7076
2017-06-11T07:32:20.620Z,7048
2017-06-11T07:33:01.166Z,7024
2017-06-11T07:33:41.722Z,7016
2017-06-11T07:34:22.246Z,6988
2017-06-11T07:35:02.779Z,6896
2017-06-11T07:35:43.321Z,6792
2017-06-11T07:36:23.862Z,6768
2017-06-11T07:37:04.405Z,6888
2017-06-11T07:37:44.929Z,7004
2017-06-11T07:38:25.465Z,7112
2017-06-11T07:39:06.003Z,7220
2017-06-11T07:39:46.525Z,7316
2017-06-11T07:40:27.044Z,7504
2017-06-11T07:41:08.158Z,7612
2017-06-11T07:41:48.808Z,7824
2017-06-11T07:42:29.699Z,8052
2017-06-11T07:43:10.209Z,8272
2017-06-11T07:43:50.729Z,8340
2017-06-11T07:44:31.251Z,8368
2017-06-11T07:45:11.813Z,8228
2017-06-11T07:45:52.356Z,8020
2017-06-11T07:46:32.897Z,7976
2017-06-11T07:47:13.443Z,7940
2017-06-11T07:47:53.977Z,8008
2017-06-11T07:48:34.511Z,7836
2017-06-11T07:49:15.045Z,7884
2017-06-11T07:49:55.609Z,7788
2017-06-11T07:50:36.173Z,7720
2017-06-11T07:51:16.734Z,7600
2017-06-11T07:51:57.280Z,7464
2017-06-11T07:52:37.811Z,7668
2017-06-11T07:53:18.358Z,7788
2017-06-11T07:53:59.515Z,7692
2017-06-11T07:54:40.074Z,7524
2017-06-11T07:55:20.596Z,7524
2017-06-11T07:56:01.166Z,7616
2017-06-11T07:56:41.699Z,7552
2017-06-11T07:57:22.253Z,7532
2017-06-11T07:58:02.817Z,7520
2017-06-11T07:58:43.358Z,7828
2017-06-11T07:59:23.887Z,7936
2017-06-11T08:00:04.430Z,7800
2017-06-11T08:00:44.982Z,7840
2017-06-11T08:01:25.503Z,7876
2017-06-11T08:02:06.067Z,8332
2017-06-11T08:02:46.628Z,8244
2017-06-11T08:03:27.163Z,8360
2017-06-11T08:04:07.716Z,8620
2017-06-11T08:04:48.243Z,9180
2017-06-11T08:05:28.786Z,9604
2017-06-11T08:06:09.325Z,10324
2017-06-11T08:06:49.876Z,11548
2017-06-11T08:07:30.433Z,16324
2017-06-11T08:08:10.976Z,32704
2017-06-11T08:08:51.537Z,42816
2017-06-11T08:09:32.088Z,46336
2017-06-11T08:10:12.645Z,42400
2017-06-11T08:10:53.189Z,45280
2017-06-11T08:11:33.745Z,43392
2017-06-11T08:12:14.281Z,40608
2017-06-11T08:12:54.852Z,42016
2017-06-11T08:13:35.393Z,45280
2017-06-11T08:14:15.965Z,40128
2017-06-11T08:14:56.479Z,36896
2017-06-11T08:15:37.036Z,34048
2017-06-11T08:16:17.582Z,38560
2017-06-11T08:16:58.130Z,36224
2017-06-11T08:17:38.651Z,33088
2017-06-11T08:18:19.224Z,41600
2017-06-11T08:18:59.749Z,55520
2017-06-11T08:19:40.267Z,60512
2017-06-11T08:20:20.792Z,53920
2017-06-11T08:21:01.326Z,40352
2017-06-11T08:21:41.856Z,43680
2017-06-11T08:22:22.400Z,41216
2017-06-11T08:23:02.982Z,41504
2017-06-11T08:23:43.519Z,51040
2017-06-11T08:24:24.064Z,62144
2017-06-11T08:25:04.607Z,49760
2017-06-11T08:25:45.158Z,58688
2017-06-11T08:26:25.678Z,59264
2017-06-11T08:27:06.257Z,54560
2017-06-11T08:27:46.788Z,51968
2017-06-11T08:28:27.393Z,52832
2017-06-11T08:29:07.963Z,61856
2017-06-11T08:29:48.501Z,73920
2017-06-11T08:30:29.045Z,73888
2017-06-11T08:31:09.582Z,70272
2017-06-11T08:31:50.116Z,71424
2017-06-11T08:32:30.711Z,72544
2017-06-11T08:33:11.280Z,73184
2017-06-11T08:33:51.824Z,72960
2017-06-11T08:34:32.355Z,71488
2017-06-11T08:35:12.906Z,65792
2017-06-11T08:35:53.462Z,62400
2017-06-11T08:36:34.007Z,57728
2017-06-11T08:37:14.556Z,47392
2017-06-11T08:37:55.096Z,59040
2017-06-11T08:38:35.628Z,64608
2017-06-11T08:39:16.215Z,74784
2017-06-11T08:39:56.807Z,70528
2017-06-11T08:40:37.322Z,65856
2017-06-11T08:41:17.865Z,78144
2017-06-11T08:41:58.414Z,74208
2017-06-11T08:42:39.014Z,61504
2017-06-11T08:43:19.520Z,52512
2017-06-11T08:44:00.065Z,56256
2017-06-11T08:44:40.591Z,58336
2017-06-11T08:45:21.151Z,63392
2017-06-11T08:46:01.690Z,65408
2017-06-11T08:46:42.244Z,63872
2017-06-11T08:47:22.802Z,56800
2017-06-11T08:48:03.350Z,46304
2017-06-11T08:48:43.910Z,37376
2017-06-11T08:49:24.456Z,26944
2017-06-11T08:50:05.003Z,19264
2017-06-11T08:50:45.554Z,14664
2017-06-11T08:51:26.086Z,9620
2017-06-11T08:52:06.637Z,8260
2017-06-11T08:52:47.174Z,7660
2017-06-11T08:53:27.713Z,7096
2017-06-11T08:54:08.275Z,6548
2017-06-11T08:54:48.792Z,6036
2017-06-11T08:55:29.339Z,5876
2017-06-11T08:56:09.890Z,5764
2017-06-11T08:56:50.442Z,5604
2017-06-11T08:57:30.996Z,5500
2017-06-11T08:58:11.545Z,5504
2017-06-11T08:58:52.103Z,5500
2017-06-11T08:59:32.656Z,5464
2017-06-11T09:00:13.207Z,5400
2017-06-11T09:00:53.749Z,5360
2017-06-11T09:01:34.932Z,5408
2017-06-11T09:02:15.484Z,5432
2017-06-11T09:02:56.031Z,5432
2017-06-11T09:03:36.580Z,5544
2017-06-11T09:04:17.125Z,5696
2017-06-11T09:04:57.659Z,5864
2017-06-11T09:05:38.214Z,5996
2017-06-11T09:06:18.766Z,6228
2017-06-11T09:06:59.322Z,6404
2017-06-11T09:07:39.865Z,6580
2017-06-11T09:08:20.416Z,6836
2017-06-11T09:09:00.966Z,6956
2017-06-11T09:09:41.518Z,7056
2017-06-11T09:10:22.063Z,7308
2017-06-11T09:11:02.621Z,7400
2017-06-11T09:11:43.170Z,7576
2017-06-11T09:12:23.721Z,7800
2017-06-11T09:13:04.277Z,8048
2017-06-11T09:13:44.827Z,8324
2017-06-11T09:14:25.377Z,8640
2017-06-11T09:15:05.931Z,8928
2017-06-11T09:15:46.485Z,9400
2017-06-11T09:16:27.035Z,9436
2017-06-11T09:17:07.589Z,9688
2017-06-11T09:17:48.145Z,9832
2017-06-11T09:18:28.697Z,10020
2017-06-11T09:19:09.288Z,9956
2017-06-11T09:19:49.857Z,9528